Pagina principale
METAR-TAF:

METAR-TAF

Aeroporti :

Aeroporto Internazionale di Bassora

Bassora, Iraq

latitudine: 30-32-56N, longitudine: 47-39-45E, altezza: 1 m

Osservazione

Il bollettino è stato emesso 1 ora e 2 minuti fa, alle 04:00 UTC
Vento 6 kt da sud/sud-ovest
Temperature 16°C
Umidità 72%
Pressione 1013 hPa
Visibilità: 6000 m

METAR: ORMM 300400Z 21006KT 6000 NSC 16/11 Q1013 NOSIG

Ora: 08:02 (05:02 UTC)

Previsione

Il bollettino è stato emesso 7 ore e 2 minuti fa, alle 22:00 UTC
Previsione valida dal 30 alle 00 UTC al 30 alle 24 UTC
Vento 6 kt da ovest/nord-ovest
Visibilità 10 km o più
nessuna nube inferiore a 1500 m e nessun cumulonembo
Temporaneamente
dal 30 alle 02 UTC al 30 alle 05 UTC
Vento 3 kt da direzioni variabili
Visibilità: 7000 m
Temporaneamente
dal 30 alle 10 UTC al 30 alle 16 UTC
Vento 16 kt da nord-ovest

TAF: ORMM 292200Z 3000/3024 30006KT CAVOK TEMPO 3002/3005 VRB03KT 7000 NSC TEMPO 3010/3016 31016KT

Osservazioni e previsioni meteorologiche di più di 4000 aeroporti (messaggi METAR e TAF).

Le stazioni disponibili sono rappresentate dai dischi gialli e rossi sulla carta.

Puntare il mouse per vedere il nome della stazione.

Clicca sopra per visualizzare le osservazioni e previsioni meteorologiche.

Per cambiare la mappa : fare clic sui pulsanti verdi con una croce nera per ingrandire, il pulsante verde con un trattino per diminuire, o sulla freccia verde per le mappe adiacenti.


METAR-TAF: